createdAt,value
2022-08-24T00:03:41.335Z,79.54
2022-08-24T00:08:33.788Z,80.23
2022-08-24T00:13:26.565Z,80.04
2022-08-24T00:18:21.096Z,81.43
2022-08-24T00:23:12.752Z,82.55
2022-08-24T00:28:05.630Z,83.89
2022-08-24T00:32:57.553Z,84.59
2022-08-24T00:37:51.103Z,84.99
2022-08-24T00:42:43.052Z,84.90
2022-08-24T00:47:51.888Z,85.23
2022-08-24T00:52:50.918Z,85.32
2022-08-24T00:57:46.952Z,86.13
2022-08-24T01:02:43.796Z,86.17
2022-08-24T01:07:37.394Z,86.44
2022-08-24T01:12:33.354Z,85.48
2022-08-24T01:17:44.152Z,86.06
2022-08-24T01:23:05.566Z,85.67
2022-08-24T01:28:04.005Z,86.08
2022-08-24T01:33:00.559Z,86.85
2022-08-24T01:37:54.532Z,86.59
2022-08-24T01:42:51.762Z,86.81
2022-08-24T01:47:43.524Z,87.26
2022-08-24T01:53:03.519Z,87.38
2022-08-24T01:57:47.631Z,87.45
2022-08-24T02:02:40.121Z,87.67
2022-08-24T02:07:33.004Z,88.05
2022-08-24T02:12:24.972Z,88.98
2022-08-24T02:17:18.277Z,88.35
2022-08-24T02:22:10.299Z,89.02
2022-08-24T02:27:02.556Z,88.83
2022-08-24T02:31:54.328Z,88.66
2022-08-24T02:36:46.874Z,89.23
2022-08-24T02:41:38.550Z,89.50
2022-08-24T02:46:31.020Z,89.77
2022-08-24T02:51:26.749Z,90.04
2022-08-24T02:56:21.419Z,90.40
2022-08-24T03:01:17.629Z,90.79
2022-08-24T03:06:14.182Z,91.11
2022-08-24T03:11:08.337Z,91.63
2022-08-24T03:16:00.251Z,91.56
2022-08-24T03:20:52.733Z,91.94
2022-08-24T03:25:44.857Z,92.11
2022-08-24T03:30:36.625Z,92.75
2022-08-24T03:35:28.643Z,93.42
2022-08-24T03:40:22.535Z,94.55
2022-08-24T03:45:16.000Z,94.65
2022-08-24T03:50:10.784Z,95.72
2022-08-24T03:55:05.999Z,96.09
2022-08-24T03:59:57.693Z,97.09
2022-08-24T04:04:49.488Z,97.11
2022-08-24T04:09:41.349Z,97.91
2022-08-24T04:14:34.401Z,98.46
2022-08-24T04:19:27.597Z,99.37
2022-08-24T04:24:20.502Z,99.33
2022-08-24T04:29:13.914Z,99.78
2022-08-24T04:34:06.922Z,99.80
2022-08-24T04:38:58.715Z,100.00
2022-08-24T04:43:50.933Z,100.00
2022-08-24T04:48:45.137Z,100.00
2022-08-24T04:53:37.637Z,100.00
2022-08-24T04:58:30.768Z,100.00
2022-08-24T05:03:23.277Z,100.00
2022-08-24T05:08:15.977Z,100.00
2022-08-24T05:13:08.658Z,100.00
2022-08-24T05:18:01.093Z,100.00
2022-08-24T05:22:55.931Z,100.00
2022-08-24T05:27:48.761Z,100.00
2022-08-24T05:32:40.650Z,100.00
2022-08-24T05:37:35.957Z,100.00
2022-08-24T05:42:27.618Z,100.00
2022-08-24T05:47:19.477Z,100.00
2022-08-24T05:52:11.138Z,100.00
2022-08-24T05:57:05.151Z,100.00
2022-08-24T06:01:57.190Z,100.00
2022-08-24T06:06:50.096Z,100.00
2022-08-24T06:11:42.270Z,100.00
2022-08-24T06:16:39.900Z,100.00
2022-08-24T06:21:32.052Z,100.00
2022-08-24T06:26:43.050Z,100.00
2022-08-24T06:31:41.808Z,100.00
2022-08-24T06:36:33.872Z,100.00
2022-08-24T06:41:26.269Z,100.00
2022-08-24T06:46:22.085Z,100.00
2022-08-24T06:51:18.429Z,100.00
2022-08-24T06:56:10.562Z,100.00
2022-08-24T07:01:15.825Z,99.51
2022-08-24T07:06:08.639Z,99.03
2022-08-24T07:11:00.425Z,99.72
2022-08-24T07:15:53.395Z,97.81
2022-08-24T07:20:45.542Z,98.08
2022-08-24T07:25:37.249Z,96.73
2022-08-24T07:30:29.058Z,96.90
2022-08-24T07:35:21.185Z,97.25
2022-08-24T07:40:12.994Z,97.33
2022-08-24T07:45:05.357Z,98.27
2022-08-24T07:49:57.355Z,97.82
2022-08-24T07:54:49.781Z,98.05
2022-08-24T07:59:41.913Z,99.77
2022-08-24T08:04:34.108Z,99.56
2022-08-24T08:09:25.825Z,98.70
2022-08-24T08:14:17.598Z,95.77
2022-08-24T08:19:10.162Z,93.43
2022-08-24T08:24:20.483Z,89.22
2022-08-24T08:29:13.807Z,88.13
2022-08-24T08:34:06.402Z,87.95
2022-08-24T08:38:59.004Z,88.36
2022-08-24T08:44:06.378Z,88.56
2022-08-24T08:49:19.354Z,87.67
2022-08-24T08:54:32.680Z,88.42
2022-08-24T08:59:52.307Z,89.37
2022-08-24T09:05:06.751Z,89.64
2022-08-24T09:10:20.151Z,88.39
2022-08-24T09:15:29.349Z,87.14
2022-08-24T09:20:27.201Z,87.91
2022-08-24T09:25:40.245Z,87.17
2022-08-24T09:30:54.627Z,85.54
2022-08-24T09:36:01.001Z,85.46
2022-08-24T09:41:14.371Z,81.88
2022-08-24T09:46:06.096Z,83.17
2022-08-24T09:51:16.669Z,82.43
2022-08-24T09:56:29.019Z,78.80
2022-08-24T10:01:49.312Z,78.89
2022-08-24T10:07:07.065Z,75.93
2022-08-24T10:12:11.593Z,75.33
2022-08-24T10:17:06.367Z,74.16
2022-08-24T10:22:06.987Z,74.54
2022-08-24T10:27:31.277Z,75.32
2022-08-24T10:32:47.673Z,72.92
2022-08-24T10:38:18.320Z,72.64
2022-08-24T10:43:36.237Z,71.71
2022-08-24T10:48:33.499Z,70.97
2022-08-24T10:53:31.005Z,67.88
2022-08-24T10:58:44.091Z,68.57
2022-08-24T11:03:52.749Z,67.54
2022-08-24T11:08:58.401Z,64.27
2022-08-24T11:14:00.474Z,59.58
2022-08-24T11:18:55.755Z,63.17
2022-08-24T11:23:48.096Z,61.67
2022-08-24T11:28:45.405Z,58.81
2022-08-24T11:33:50.050Z,57.96
2022-08-24T11:38:45.892Z,57.02
2022-08-24T11:44:07.646Z,57.57
2022-08-24T11:49:24.830Z,57.51
2022-08-24T11:54:25.315Z,56.80
2022-08-24T11:59:49.704Z,57.89
2022-08-24T12:04:49.320Z,56.97
2022-08-24T12:10:15.197Z,56.37
2022-08-24T12:15:32.872Z,58.54
2022-08-24T12:20:32.047Z,55.60
2022-08-24T12:25:45.820Z,53.68
2022-08-24T12:30:37.541Z,52.62
2022-08-24T12:35:45.886Z,52.51
2022-08-24T12:40:48.159Z,52.53
2022-08-24T12:45:41.126Z,52.94
2022-08-24T12:51:04.328Z,52.17
2022-08-24T12:56:18.552Z,53.17
2022-08-24T13:01:11.746Z,53.16
2022-08-24T13:06:27.889Z,54.64
2022-08-24T13:11:32.014Z,54.26
2022-08-24T13:16:50.881Z,53.65
2022-08-24T13:21:50.804Z,53.06
2022-08-24T13:26:42.497Z,54.14
2022-08-24T13:31:38.613Z,54.54
2022-08-24T13:36:53.534Z,54.76
2022-08-24T13:41:55.639Z,53.59
2022-08-24T13:47:12.913Z,54.57
2022-08-24T13:52:16.311Z,54.98
2022-08-24T13:57:14.159Z,54.03
2022-08-24T14:02:25.913Z,52.97
2022-08-24T14:07:23.773Z,53.28
2022-08-24T14:12:30.706Z,53.46
2022-08-24T14:17:54.099Z,53.73
2022-08-24T14:23:18.383Z,54.71
2022-08-24T14:28:32.871Z,55.05
2022-08-24T14:33:35.433Z,54.82
2022-08-24T14:38:56.461Z,55.82
2022-08-24T14:44:00.186Z,55.95
2022-08-24T14:49:06.910Z,56.62
2022-08-24T14:54:19.822Z,56.79
2022-08-24T14:59:29.865Z,56.73
2022-08-24T15:04:37.244Z,57.50
2022-08-24T15:09:38.737Z,57.15
2022-08-24T15:14:55.374Z,57.61
2022-08-24T15:19:57.820Z,58.81
2022-08-24T15:25:05.394Z,58.56
2022-08-24T15:29:59.658Z,56.84
2022-08-24T15:34:58.314Z,55.84
2022-08-24T15:39:50.079Z,56.49
2022-08-24T15:44:45.274Z,57.15
2022-08-24T15:50:08.602Z,57.04
2022-08-24T15:55:03.426Z,56.44
2022-08-24T16:00:07.904Z,56.83
2022-08-24T16:05:24.275Z,56.12
2022-08-24T16:10:29.926Z,56.93
2022-08-24T16:15:21.670Z,56.07
2022-08-24T16:20:34.214Z,56.40
2022-08-24T16:25:28.837Z,56.41
2022-08-24T16:30:35.867Z,57.13
2022-08-24T16:35:27.741Z,57.50
2022-08-24T16:40:19.668Z,56.94
2022-08-24T16:45:15.155Z,57.13
2022-08-24T16:50:07.257Z,57.14
2022-08-24T16:55:00.860Z,57.31
2022-08-24T16:59:53.054Z,57.38
2022-08-24T17:04:45.657Z,57.50
2022-08-24T17:09:39.321Z,57.34
2022-08-24T17:14:31.247Z,57.15
2022-08-24T17:19:22.926Z,56.95
2022-08-24T17:24:17.851Z,57.62
2022-08-24T17:29:10.465Z,58.08
2022-08-24T17:34:08.321Z,58.46
2022-08-24T17:39:02.109Z,58.25
2022-08-24T17:43:55.010Z,58.48
2022-08-24T17:48:47.972Z,59.11
2022-08-24T17:53:39.913Z,58.74
2022-08-24T17:58:31.618Z,58.86
2022-08-24T18:03:23.315Z,59.29
2022-08-24T18:08:15.138Z,59.67
2022-08-24T18:13:09.614Z,59.44
2022-08-24T18:18:03.980Z,59.96
2022-08-24T18:22:56.217Z,59.94
2022-08-24T18:27:51.016Z,59.89
2022-08-24T18:32:42.681Z,60.32
2022-08-24T18:37:34.413Z,60.36
2022-08-24T18:42:27.380Z,60.49
2022-08-24T18:47:19.006Z,60.59
2022-08-24T18:52:14.565Z,60.64
2022-08-24T18:57:07.357Z,61.27
2022-08-24T19:02:19.437Z,61.78
2022-08-24T19:07:11.458Z,62.21
2022-08-24T19:12:04.399Z,62.08
2022-08-24T19:16:56.107Z,62.11
2022-08-24T19:21:47.990Z,63.05
2022-08-24T19:26:39.662Z,62.66
2022-08-24T19:31:33.634Z,62.95
2022-08-24T19:36:25.848Z,63.06
2022-08-24T19:41:18.925Z,63.10
2022-08-24T19:46:12.024Z,63.54
2022-08-24T19:51:09.791Z,64.05
2022-08-24T19:56:01.877Z,64.39
2022-08-24T20:01:03.922Z,64.85
2022-08-24T20:05:55.769Z,64.91
2022-08-24T20:10:48.173Z,65.25
2022-08-24T20:15:40.441Z,65.30
2022-08-24T20:20:32.637Z,65.88
2022-08-24T20:25:24.391Z,66.21
2022-08-24T20:30:17.905Z,66.88
2022-08-24T20:35:10.247Z,67.15
2022-08-24T20:40:03.191Z,67.32
2022-08-24T20:44:55.748Z,67.17
2022-08-24T20:49:48.367Z,67.98
2022-08-24T20:54:41.044Z,67.81
2022-08-24T20:59:34.529Z,68.42
2022-08-24T21:04:26.185Z,68.40
2022-08-24T21:09:20.570Z,68.63
2022-08-24T21:14:12.947Z,68.87
2022-08-24T21:19:05.055Z,68.97
2022-08-24T21:23:56.799Z,69.27
2022-08-24T21:28:49.004Z,69.40
2022-08-24T21:33:59.357Z,69.77
2022-08-24T21:38:54.725Z,70.13
2022-08-24T21:43:46.541Z,70.17
2022-08-24T21:48:39.860Z,70.65
2022-08-24T21:53:31.701Z,70.92
2022-08-24T21:58:24.466Z,71.14
2022-08-24T22:03:16.220Z,71.27
2022-08-24T22:08:08.403Z,71.90
2022-08-24T22:13:04.022Z,72.05
2022-08-24T22:17:56.249Z,72.33
2022-08-24T22:22:48.594Z,72.75
2022-08-24T22:27:45.813Z,73.00
2022-08-24T22:32:37.650Z,73.68
2022-08-24T22:37:29.701Z,74.46
2022-08-24T22:42:21.516Z,75.02
2022-08-24T22:47:15.040Z,75.55
2022-08-24T22:52:07.703Z,76.53
2022-08-24T22:56:59.544Z,76.84
2022-08-24T23:01:54.249Z,77.52
2022-08-24T23:06:46.727Z,78.65
2022-08-24T23:11:39.535Z,79.20
2022-08-24T23:16:33.298Z,79.50
2022-08-24T23:21:26.041Z,80.51
2022-08-24T23:26:20.574Z,80.95
2022-08-24T23:31:13.538Z,81.84
2022-08-24T23:36:11.039Z,82.22
2022-08-24T23:41:12.161Z,82.67
2022-08-24T23:46:04.335Z,82.36
2022-08-24T23:51:00.244Z,82.88
2022-08-24T23:55:53.263Z,83.48
